Time;durP1;ratioP1;P1;durP2;ratioP2;P2;SDS_P1;SDS_P2;PMS_P1;PMS_P2;Temp;Humidity;BMP_temperature;BMP_pressure;BME280_temperature;BME280_humidity;BME280_pressure;Samples;Min_cycle;Max_cycle;Signal;HPM_P1;HPM_P2
2022/01/26 00:07:47;;;;;;;99.90;28.02;;;;;;;;;;4985443;28;20049;-85
2022/01/26 00:10:13;;;;;;;85.22;22.70;;;;;;;;;;4964664;28;20142;-84
2022/01/26 00:12:39;;;;;;;112.60;28.70;;;;;;;;;;4968124;28;20058;-84
2022/01/26 00:15:05;;;;;;;86.65;24.10;;;;;;;;;;4963385;28;20409;-85
2022/01/26 00:17:31;;;;;;;82.28;20.30;;;;;;;;;;4967213;28;20037;-84
2022/01/26 00:20:07;;;;;;;88.10;24.45;;;;;;;;;;4996003;28;20050;-85
2022/01/26 00:25:21;;;;;;;96.95;27.38;;;;;;;;;;4983808;28;19921;-85
2022/01/26 00:41:06;;;;;;;85.73;26.20;;;;;;;;;;4966997;28;20099;-85
2022/01/26 00:43:33;;;;;;;55.72;18.30;;;;;;;;;;4975580;28;20695;-84
2022/01/26 00:46:01;;;;;;;40.08;12.02;;;;;;;;;;4948344;28;20035;-84
2022/01/26 00:48:30;;;;;;;109.90;29.70;;;;;;;;;;4978652;28;20812;-84
2022/01/26 00:50:59;;;;;;;48.90;14.57;;;;;;;;;;4947306;28;20382;-84
2022/01/26 00:53:32;;;;;;;96.43;29.55;;;;;;;;;;4944474;28;20054;-85
2022/01/26 00:55:58;;;;;;;102.70;26.77;;;;;;;;;;4962476;28;20647;-85
2022/01/26 00:58:24;;;;;;;98.72;27.20;;;;;;;;;;4964579;28;20038;-85
2022/01/26 01:00:50;;;;;;;108.20;27.35;;;;;;;;;;4950115;28;20049;-86
2022/01/26 01:03:17;;;;;;;97.35;27.40;;;;;;;;;;4956278;28;20035;-85
2022/01/26 01:05:59;;;;;;;98.65;27.73;;;;;;;;;;4950158;28;20126;-85
2022/01/26 01:08:25;;;;;;;99.53;23.05;;;;;;;;;;4950542;28;20960;-85
2022/01/26 01:10:56;;;;;;;121.32;29.90;;;;;;;;;;4949495;28;20450;-85
2022/01/26 01:13:30;;;;;;;58.78;17.50;;;;;;;;;;4963375;28;20042;-85
2022/01/26 01:15:57;;;;;;;62.00;17.15;;;;;;;;;;4982165;28;20437;-86
2022/01/26 01:18:45;;;;;;;76.15;22.63;;;;;;;;;;4948657;28;20569;-84
2022/01/26 01:29:37;;;;;;;76.85;19.00;;;;;;;;;;4972018;28;20093;-85
2022/01/26 01:32:11;;;;;;;100.93;28.35;;;;;;;;;;4962731;28;20034;-85
2022/01/26 01:34:39;;;;;;;67.97;19.73;;;;;;;;;;4970569;28;20111;-85
2022/01/26 01:37:07;;;;;;;96.15;27.52;;;;;;;;;;4966678;28;20038;-85
2022/01/26 01:39:34;;;;;;;84.15;23.38;;;;;;;;;;4968778;28;20049;-85
2022/01/26 01:42:00;;;;;;;89.32;25.08;;;;;;;;;;4974878;28;20030;-85
2022/01/26 01:44:26;;;;;;;66.07;18.83;;;;;;;;;;4970362;28;20466;-85
2022/01/26 01:46:54;;;;;;;81.13;22.40;;;;;;;;;;4972399;28;20023;-85
2022/01/26 01:49:20;;;;;;;87.00;23.60;;;;;;;;;;4967227;28;20081;-85
2022/01/26 01:51:54;;;;;;;45.20;14.52;;;;;;;;;;4973390;28;20089;-85
2022/01/26 01:54:20;;;;;;;81.15;23.92;;;;;;;;;;4971248;28;20066;-85
2022/01/26 01:56:54;;;;;;;97.47;27.65;;;;;;;;;;4968112;28;20094;-85
2022/01/26 01:59:21;;;;;;;69.32;20.30;;;;;;;;;;4967132;28;20054;-86
2022/01/26 02:01:47;;;;;;;101.55;26.85;;;;;;;;;;4969343;28;20057;-85
2022/01/26 02:04:13;;;;;;;58.45;17.55;;;;;;;;;;4969742;28;21235;-85
2022/01/26 02:06:41;;;;;;;78.47;20.23;;;;;;;;;;4986523;28;20533;-85
2022/01/26 02:09:07;;;;;;;76.20;21.75;;;;;;;;;;4970400;28;20062;-86
2022/01/26 02:11:33;;;;;;;67.93;21.98;;;;;;;;;;4993908;28;20394;-85
2022/01/26 02:14:07;;;;;;;85.43;24.58;;;;;;;;;;4969979;28;20605;-84
2022/01/26 02:16:48;;;;;;;93.47;26.85;;;;;;;;;;4960207;28;20053;-85
2022/01/26 02:59:53;;;;;;;76.95;21.85;;;;;;;;;;4963739;28;20534;-84
2022/01/26 03:02:37;;;;;;;76.25;23.25;;;;;;;;;;4954438;28;20422;-85
2022/01/26 03:05:06;;;;;;;62.08;19.05;;;;;;;;;;4946063;28;20034;-84
2022/01/26 03:07:58;;;;;;;73.63;19.60;;;;;;;;;;4950533;28;20070;-84
2022/01/26 03:10:43;;;;;;;70.38;21.20;;;;;;;;;;4948589;28;20392;-84
2022/01/26 03:13:15;;;;;;;65.22;16.98;;;;;;;;;;4948992;28;20034;-85
2022/01/26 03:15:47;;;;;;;99.00;29.10;;;;;;;;;;4948367;28;20038;-85
2022/01/26 03:18:34;;;;;;;102.43;27.35;;;;;;;;;;4964860;28;20086;-85
2022/01/26 03:21:04;;;;;;;55.60;14.75;;;;;;;;;;4952804;28;20031;-84
2022/01/26 03:29:12;;;;;;;96.78;25.67;;;;;;;;;;4967566;28;20081;-85
2022/01/26 03:32:57;;;;;;;83.43;21.40;;;;;;;;;;4965585;28;20502;-85
2022/01/26 03:34:34;;;;;;;111.65;28.50;;;;;;;;;;4947462;28;20027;-85
2022/01/26 03:37:01;;;;;;;104.15;28.30;;;;;;;;;;4950578;28;20042;-84
2022/01/26 03:39:29;;;;;;;99.13;27.40;;;;;;;;;;4947994;28;20046;-85
2022/01/26 03:42:04;;;;;;;105.00;29.40;;;;;;;;;;4966019;28;20034;-85
2022/01/26 03:44:30;;;;;;;66.47;19.63;;;;;;;;;;4962529;28;20034;-85
2022/01/26 03:46:56;;;;;;;95.18;28.77;;;;;;;;;;4967178;28;20026;-85
2022/01/26 03:49:22;;;;;;;76.70;19.55;;;;;;;;;;4961959;28;20027;-85
2022/01/26 03:51:48;;;;;;;89.65;22.40;;;;;;;;;;4949509;28;20030;-85
2022/01/26 03:54:16;;;;;;;81.85;21.42;;;;;;;;;;4945913;28;20042;-85
2022/01/26 03:56:42;;;;;;;100.32;28.80;;;;;;;;;;4948908;28;20023;-85
2022/01/26 03:59:09;;;;;;;102.40;28.08;;;;;;;;;;4979469;28;20486;-84
2022/01/26 04:01:36;;;;;;;72.13;20.45;;;;;;;;;;4950476;28;20061;-85
2022/01/26 04:04:02;;;;;;;92.00;24.45;;;;;;;;;;4947944;28;20033;-85
2022/01/26 04:06:30;;;;;;;89.05;25.20;;;;;;;;;;4982866;28;20043;-84
2022/01/26 04:08:56;;;;;;;105.72;26.23;;;;;;;;;;4981867;28;20031;-85
2022/01/26 04:13:54;;;;;;;93.55;25.10;;;;;;;;;;4968445;28;20043;-85
2022/01/26 04:16:27;;;;;;;97.45;26.92;;;;;;;;;;4966420;28;20023;-85
2022/01/26 04:18:55;;;;;;;85.70;23.00;;;;;;;;;;4946115;28;20023;-85
2022/01/26 04:21:42;;;;;;;52.30;16.77;;;;;;;;;;4968791;28;20038;-85
2022/01/26 04:24:31;;;;;;;39.90;13.50;;;;;;;;;;4949855;28;20033;-85
2022/01/26 04:27:17;;;;;;;93.13;24.02;;;;;;;;;;4956262;28;20033;-85
2022/01/26 04:29:43;;;;;;;69.20;21.95;;;;;;;;;;4963893;28;20039;-85
2022/01/26 04:32:12;;;;;;;45.83;14.32;;;;;;;;;;4948223;28;20825;-85
2022/01/26 04:34:38;;;;;;;80.72;21.15;;;;;;;;;;4947860;28;20554;-84
2022/01/26 04:40:05;;;;;;;91.55;22.77;;;;;;;;;;4953767;28;20078;-85
2022/01/26 04:42:45;;;;;;;83.20;24.90;;;;;;;;;;4946302;28;20161;-85
2022/01/26 04:45:11;;;;;;;65.82;20.05;;;;;;;;;;4946146;28;20034;-84
2022/01/26 04:47:38;;;;;;;71.63;20.77;;;;;;;;;;4946451;28;20478;-84
2022/01/26 04:50:13;;;;;;;68.53;20.60;;;;;;;;;;4959399;28;20477;-85
2022/01/26 04:52:39;;;;;;;74.20;23.23;;;;;;;;;;4950742;28;20027;-84
2022/01/26 04:55:06;;;;;;;76.28;21.27;;;;;;;;;;4944752;28;20029;-84
2022/01/26 04:57:32;;;;;;;63.75;15.32;;;;;;;;;;4947585;28;20035;-85
2022/01/26 04:59:58;;;;;;;78.13;23.60;;;;;;;;;;4979146;28;20694;-84
2022/01/26 05:02:24;;;;;;;73.82;19.40;;;;;;;;;;4948517;28;20022;-84
2022/01/26 05:04:50;;;;;;;58.13;17.15;;;;;;;;;;4946005;28;20471;-85
2022/01/26 05:07:16;;;;;;;82.35;21.15;;;;;;;;;;4965144;28;20055;-83
2022/01/26 05:09:42;;;;;;;42.78;13.45;;;;;;;;;;4966716;28;20530;-85
2022/01/26 05:12:09;;;;;;;56.15;15.65;;;;;;;;;;4948051;28;20042;-84
2022/01/26 05:14:35;;;;;;;80.30;22.80;;;;;;;;;;4980606;28;20475;-85
2022/01/26 05:17:01;;;;;;;76.57;22.55;;;;;;;;;;4945007;28;20027;-84
2022/01/26 05:19:28;;;;;;;85.90;22.80;;;;;;;;;;4977910;28;20431;-85
2022/01/26 05:21:54;;;;;;;75.57;22.20;;;;;;;;;;4948151;28;20030;-85
2022/01/26 05:24:20;;;;;;;85.70;25.00;;;;;;;;;;4980478;28;20037;-85
2022/01/26 05:26:46;;;;;;;79.30;23.10;;;;;;;;;;4949869;28;20023;-85
2022/01/26 05:29:12;;;;;;;79.10;20.92;;;;;;;;;;4953519;28;20113;-85
2022/01/26 05:31:44;;;;;;;58.40;16.35;;;;;;;;;;4950247;28;20486;-85
2022/01/26 05:34:11;;;;;;;80.00;22.08;;;;;;;;;;4941835;28;20031;-85
2022/01/26 05:36:37;;;;;;;76.35;22.02;;;;;;;;;;4950074;28;20045;-85
2022/01/26 05:39:04;;;;;;;80.72;21.38;;;;;;;;;;4960772;28;20390;-86
2022/01/26 05:41:30;;;;;;;67.60;20.70;;;;;;;;;;4947490;28;20043;-85
2022/01/26 05:43:56;;;;;;;37.25;11.70;;;;;;;;;;4944201;28;20042;-84
2022/01/26 05:46:43;;;;;;;81.80;18.60;;;;;;;;;;4953351;28;20035;-85
2022/01/26 05:49:10;;;;;;;78.53;21.92;;;;;;;;;;4946039;28;20083;-85
2022/01/26 05:51:36;;;;;;;50.80;15.20;;;;;;;;;;4948787;28;20031;-85
2022/01/26 05:54:04;;;;;;;60.67;18.80;;;;;;;;;;4953337;28;20546;-85
2022/01/26 05:56:30;;;;;;;76.07;21.88;;;;;;;;;;4977840;28;20035;-85
2022/01/26 05:58:56;;;;;;;64.28;19.17;;;;;;;;;;4964037;28;20098;-85
2022/01/26 06:01:22;;;;;;;47.78;13.90;;;;;;;;;;4982007;28;20038;-85
2022/01/26 06:03:48;;;;;;;72.13;22.05;;;;;;;;;;4950908;28;20586;-84
2022/01/26 06:06:17;;;;;;;42.45;13.27;;;;;;;;;;4968939;28;20062;-85
2022/01/26 06:08:43;;;;;;;35.30;8.82;;;;;;;;;;4955021;28;20030;-84
2022/01/26 06:11:09;;;;;;;64.38;18.75;;;;;;;;;;4950352;28;20034;-85
2022/01/26 06:13:36;;;;;;;62.45;18.25;;;;;;;;;;4981185;28;20546;-85
2022/01/26 06:16:02;;;;;;;71.03;18.08;;;;;;;;;;4950717;28;20037;-85
2022/01/26 06:18:28;;;;;;;53.45;18.55;;;;;;;;;;4946066;28;20402;-84
2022/01/26 06:20:55;;;;;;;67.40;20.55;;;;;;;;;;4953912;28;20035;-85
2022/01/26 06:23:24;;;;;;;57.25;17.42;;;;;;;;;;4947332;28;20055;-85
2022/01/26 06:25:51;;;;;;;77.57;23.27;;;;;;;;;;4949562;28;20542;-85
2022/01/26 06:28:17;;;;;;;55.20;15.15;;;;;;;;;;4948360;28;20023;-85
2022/01/26 06:30:47;;;;;;;61.65;14.82;;;;;;;;;;4955257;28;20046;-85
2022/01/26 06:33:13;;;;;;;44.08;12.32;;;;;;;;;;4965598;28;20031;-85
2022/01/26 06:35:40;;;;;;;53.25;16.38;;;;;;;;;;4970269;28;20495;-84
2022/01/26 06:38:06;;;;;;;66.55;20.92;;;;;;;;;;4968868;28;20479;-84
2022/01/26 06:40:32;;;;;;;72.10;22.35;;;;;;;;;;4968469;28;20038;-85
2022/01/26 06:43:06;;;;;;;57.45;20.40;;;;;;;;;;4969738;28;20061;-85
2022/01/26 06:45:36;;;;;;;77.07;21.85;;;;;;;;;;4961220;28;20034;-85
2022/01/26 06:50:37;;;;;;;44.40;14.90;;;;;;;;;;4984603;28;20097;-84
2022/01/26 06:53:03;;;;;;;70.80;17.00;;;;;;;;;;4973019;28;20044;-85
2022/01/26 06:55:29;;;;;;;74.47;21.45;;;;;;;;;;4966425;28;20129;-85
2022/01/26 06:57:55;;;;;;;78.20;24.25;;;;;;;;;;4967809;28;20082;-85
2022/01/26 07:00:21;;;;;;;72.55;20.92;;;;;;;;;;4967771;28;20123;-84
2022/01/26 07:02:47;;;;;;;74.82;23.13;;;;;;;;;;4984934;28;20064;-86
2022/01/26 07:05:13;;;;;;;76.55;19.65;;;;;;;;;;4963285;28;20031;-84
2022/01/26 07:07:40;;;;;;;76.88;22.35;;;;;;;;;;4979950;28;20818;-85
2022/01/26 07:10:07;;;;;;;76.03;20.73;;;;;;;;;;4968293;28;20040;-85
2022/01/26 07:12:33;;;;;;;78.43;24.35;;;;;;;;;;4987010;28;20026;-86
2022/01/26 07:23:13;;;;;;;72.90;22.42;;;;;;;;;;4983454;28;20054;-86
2022/01/26 07:25:40;;;;;;;81.07;23.55;;;;;;;;;;4966800;28;20141;-85
2022/01/26 07:28:06;;;;;;;70.50;21.52;;;;;;;;;;4968443;28;20026;-85
2022/01/26 07:30:34;;;;;;;96.22;26.90;;;;;;;;;;4981347;28;20435;-85
2022/01/26 07:33:01;;;;;;;55.38;20.73;;;;;;;;;;4948611;28;20031;-84
2022/01/26 07:35:27;;;;;;;78.32;25.00;;;;;;;;;;4943283;28;20479;-85
2022/01/26 07:37:56;;;;;;;87.88;26.13;;;;;;;;;;4980551;28;20030;-85
2022/01/26 07:40:22;;;;;;;91.25;24.02;;;;;;;;;;4949480;28;20033;-85
2022/01/26 07:42:48;;;;;;;54.97;14.27;;;;;;;;;;4946166;28;20031;-85
2022/01/26 07:45:14;;;;;;;87.97;27.13;;;;;;;;;;4967137;28;20423;-85
2022/01/26 07:47:40;;;;;;;87.35;25.80;;;;;;;;;;4945764;28;20027;-84
2022/01/26 07:50:09;;;;;;;91.57;25.35;;;;;;;;;;4947576;28;20058;-85
2022/01/26 07:52:39;;;;;;;83.90;24.48;;;;;;;;;;4946590;28;20483;-85
2022/01/26 07:55:05;;;;;;;95.78;30.35;;;;;;;;;;4948362;28;20072;-85
2022/01/26 07:57:31;;;;;;;78.10;22.20;;;;;;;;;;4977323;28;20505;-85
2022/01/26 07:59:57;;;;;;;74.20;20.52;;;;;;;;;;4974802;28;20035;-85
2022/01/26 08:02:24;;;;;;;66.22;21.38;;;;;;;;;;4977389;28;20616;-84
2022/01/26 08:04:50;;;;;;;91.18;27.23;;;;;;;;;;4942957;28;20426;-84
2022/01/26 08:07:16;;;;;;;75.20;24.15;;;;;;;;;;4978741;28;20035;-85
2022/01/26 08:09:45;;;;;;;94.45;27.80;;;;;;;;;;4947053;28;20026;-86
2022/01/26 08:12:11;;;;;;;81.18;24.45;;;;;;;;;;4945090;28;20058;-86
2022/01/26 08:14:38;;;;;;;95.70;27.13;;;;;;;;;;4944361;28;20031;-85
2022/01/26 08:17:05;;;;;;;82.05;23.60;;;;;;;;;;4948360;28;20054;-85
2022/01/26 08:19:31;;;;;;;96.05;29.70;;;;;;;;;;4946963;28;20034;-85
2022/01/26 08:22:00;;;;;;;94.50;30.65;;;;;;;;;;4961759;28;20376;-86
2022/01/26 08:24:26;;;;;;;91.30;28.83;;;;;;;;;;4939757;28;20423;-86
2022/01/26 08:26:54;;;;;;;76.72;24.73;;;;;;;;;;4950251;28;20031;-85
2022/01/26 08:29:31;;;;;;;67.97;22.15;;;;;;;;;;4967163;28;20039;-86
2022/01/26 08:31:58;;;;;;;96.47;29.85;;;;;;;;;;4978302;28;20223;-86
2022/01/26 08:34:24;;;;;;;103.72;29.73;;;;;;;;;;4980166;28;20037;-85
2022/01/26 08:36:50;;;;;;;93.78;29.92;;;;;;;;;;4999260;28;20033;-86
2022/01/26 08:39:16;;;;;;;96.47;27.33;;;;;;;;;;4987354;28;20030;-85
2022/01/26 08:41:43;;;;;;;105.45;30.02;;;;;;;;;;4966241;28;20117;-85
2022/01/26 08:44:09;;;;;;;59.22;19.30;;;;;;;;;;4968458;28;20030;-86
2022/01/26 08:46:36;;;;;;;98.20;29.42;;;;;;;;;;4997711;28;20023;-85
2022/01/26 08:49:03;;;;;;;88.00;26.42;;;;;;;;;;4959907;28;20715;-85
2022/01/26 08:51:29;;;;;;;114.15;34.78;;;;;;;;;;4970458;28;20038;-85
2022/01/26 08:53:55;;;;;;;92.07;29.85;;;;;;;;;;4963545;28;20584;-85
2022/01/26 08:56:21;;;;;;;101.40;31.40;;;;;;;;;;5000358;28;20375;-85
2022/01/26 08:58:47;;;;;;;111.97;32.65;;;;;;;;;;4997261;28;20115;-85
2022/01/26 09:01:13;;;;;;;96.93;26.50;;;;;;;;;;4967109;28;20034;-84
2022/01/26 09:03:39;;;;;;;55.33;17.13;;;;;;;;;;4963345;28;20125;-85
2022/01/26 09:06:09;;;;;;;110.22;34.70;;;;;;;;;;4967015;28;20439;-85
2022/01/26 09:08:38;;;;;;;89.38;25.25;;;;;;;;;;4978974;28;20222;-85
2022/01/26 09:11:04;;;;;;;79.60;26.50;;;;;;;;;;4962594;28;20035;-85
2022/01/26 09:13:31;;;;;;;104.00;31.15;;;;;;;;;;4964891;28;20045;-84
2022/01/26 09:15:58;;;;;;;103.65;35.60;;;;;;;;;;4971514;28;20023;-85
2022/01/26 09:18:48;;;;;;;85.05;25.15;;;;;;;;;;4967834;28;20367;-85
2022/01/26 09:21:14;;;;;;;94.15;28.42;;;;;;;;;;4968536;28;20030;-85
2022/01/26 09:23:40;;;;;;;62.95;19.85;;;;;;;;;;4968990;28;20042;-85
2022/01/26 09:26:06;;;;;;;92.47;29.70;;;;;;;;;;4967170;28;20034;-85
2022/01/26 09:28:33;;;;;;;101.32;30.20;;;;;;;;;;4971598;28;20102;-85
2022/01/26 09:30:59;;;;;;;106.60;35.50;;;;;;;;;;4976154;28;20450;-86
2022/01/26 09:33:25;;;;;;;83.22;28.02;;;;;;;;;;4983615;28;20118;-86
2022/01/26 09:35:51;;;;;;;99.63;32.53;;;;;;;;;;4950916;28;20114;-84
2022/01/26 09:38:17;;;;;;;88.50;26.48;;;;;;;;;;4951757;28;20493;-84
2022/01/26 09:40:43;;;;;;;103.95;31.30;;;;;;;;;;4945046;28;20058;-84
2022/01/26 09:43:11;;;;;;;97.65;28.40;;;;;;;;;;4948034;28;20125;-85
2022/01/26 09:45:37;;;;;;;91.95;28.40;;;;;;;;;;4953699;28;20142;-85
2022/01/26 09:48:03;;;;;;;112.07;33.65;;;;;;;;;;4947223;28;20122;-84
2022/01/26 09:50:29;;;;;;;90.47;28.30;;;;;;;;;;4967031;28;20526;-85
2022/01/26 09:52:56;;;;;;;55.47;17.75;;;;;;;;;;4979729;28;20038;-84
2022/01/26 09:55:23;;;;;;;95.95;30.15;;;;;;;;;;4969734;28;20066;-82
2022/01/26 09:57:49;;;;;;;70.50;22.40;;;;;;;;;;4967523;28;20095;-85
2022/01/26 10:00:15;;;;;;;83.90;28.13;;;;;;;;;;4945557;28;20027;-85
2022/01/26 10:02:43;;;;;;;94.53;30.13;;;;;;;;;;4950255;28;20127;-85
2022/01/26 10:05:16;;;;;;;87.72;27.05;;;;;;;;;;4965092;28;20027;-84
2022/01/26 10:07:56;;;;;;;90.07;26.15;;;;;;;;;;4956464;28;20034;-84
2022/01/26 10:15:41;;;;;;;99.25;30.45;;;;;;;;;;4967434;28;20678;-85
2022/01/26 10:18:16;;;;;;;63.45;20.60;;;;;;;;;;4950455;28;20038;-86
2022/01/26 10:20:42;;;;;;;91.88;25.25;;;;;;;;;;4966071;28;20371;-85
2022/01/26 10:23:12;;;;;;;75.40;20.98;;;;;;;;;;4981015;28;20062;-85
2022/01/26 10:25:38;;;;;;;98.82;29.52;;;;;;;;;;4951293;28;20030;-85
2022/01/26 10:28:05;;;;;;;77.88;22.38;;;;;;;;;;4952115;28;20049;-86
2022/01/26 10:30:33;;;;;;;50.85;18.83;;;;;;;;;;4946407;28;20457;-84
2022/01/26 10:32:59;;;;;;;79.10;25.40;;;;;;;;;;4946106;28;20039;-85
2022/01/26 10:35:25;;;;;;;83.07;28.58;;;;;;;;;;4947410;28;20681;-85
2022/01/26 10:37:53;;;;;;;69.50;18.83;;;;;;;;;;4967472;28;20030;-85
2022/01/26 10:40:22;;;;;;;60.03;18.15;;;;;;;;;;4967303;28;20154;-86
2022/01/26 10:42:55;;;;;;;57.65;21.45;;;;;;;;;;4947162;28;20033;-86
2022/01/26 10:46:14;;;;;;;53.35;17.40;;;;;;;;;;4961054;28;20114;-86
2022/01/26 10:53:45;;;;;;;74.25;24.48;;;;;;;;;;4964208;28;20054;-86
2022/01/26 10:56:11;;;;;;;80.18;25.20;;;;;;;;;;4950200;28;20062;-86
2022/01/26 10:58:44;;;;;;;79.45;26.83;;;;;;;;;;4947274;28;20482;-86
2022/01/26 11:01:10;;;;;;;71.43;24.15;;;;;;;;;;4966532;28;20502;-86
2022/01/26 11:03:36;;;;;;;79.20;25.60;;;;;;;;;;4945166;28;20038;-85
2022/01/26 11:06:13;;;;;;;83.60;26.10;;;;;;;;;;4950643;28;20086;-86
2022/01/26 11:08:40;;;;;;;87.18;25.10;;;;;;;;;;4966642;28;20058;-86
2022/01/26 11:11:06;;;;;;;53.45;18.38;;;;;;;;;;4965050;28;20327;-86
2022/01/26 11:13:37;;;;;;;45.72;14.88;;;;;;;;;;4966238;28;20041;-85
2022/01/26 11:16:09;;;;;;;65.03;21.52;;;;;;;;;;4965277;28;20022;-86
2022/01/26 11:18:49;;;;;;;72.03;23.40;;;;;;;;;;4950241;28;20031;-86
2022/01/26 11:21:36;;;;;;;79.93;25.17;;;;;;;;;;4978985;28;20505;-87
2022/01/26 11:24:16;;;;;;;68.28;21.05;;;;;;;;;;4950225;28;20514;-86
2022/01/26 11:26:44;;;;;;;75.60;22.30;;;;;;;;;;4968191;28;20030;-86
2022/01/26 11:29:18;;;;;;;55.65;16.88;;;;;;;;;;4978457;28;20065;-86
2022/01/26 11:31:44;;;;;;;82.30;23.38;;;;;;;;;;4957591;28;20043;-86
2022/01/26 11:34:11;;;;;;;73.57;22.33;;;;;;;;;;4965298;28;20363;-86
2022/01/26 11:36:42;;;;;;;70.40;22.88;;;;;;;;;;4984081;28;20380;-86
2022/01/26 11:47:26;;;;;;;60.63;19.15;;;;;;;;;;4966585;28;20094;-85
2022/01/26 11:49:53;;;;;;;77.90;26.30;;;;;;;;;;4967605;28;20035;-86
2022/01/26 11:52:35;;;;;;;55.15;19.25;;;;;;;;;;4981576;28;20062;-86
2022/01/26 11:55:04;;;;;;;83.90;23.30;;;;;;;;;;4964960;28;20027;-86
2022/01/26 11:57:56;;;;;;;80.82;22.67;;;;;;;;;;4982026;28;20027;-86
2022/01/26 12:00:41;;;;;;;72.60;23.88;;;;;;;;;;4947191;28;20606;-86
2022/01/26 12:03:10;;;;;;;81.63;24.45;;;;;;;;;;4983162;28;20561;-86
2022/01/26 12:05:47;;;;;;;44.17;13.25;;;;;;;;;;4964818;28;20083;-85
2022/01/26 12:08:13;;;;;;;70.75;23.67;;;;;;;;;;4978218;28;20678;-86
2022/01/26 12:10:40;;;;;;;87.95;24.42;;;;;;;;;;4949786;28;20090;-86
2022/01/26 12:13:09;;;;;;;66.03;23.00;;;;;;;;;;4966773;28;20030;-86
2022/01/26 12:15:54;;;;;;;88.55;26.75;;;;;;;;;;4986261;28;20030;-86
2022/01/26 12:35:56;;;;;;;90.82;28.48;;;;;;;;;;4957710;28;20038;-85
2022/01/26 12:38:30;;;;;;;;;;;;;;;;;;4951006;28;20466;-86
2022/01/26 12:43:43;;;;;;;79.18;26.33;;;;;;;;;;4964155;28;20079;-85
2022/01/26 12:46:10;;;;;;;42.33;14.57;;;;;;;;;;4947608;28;20106;-85
2022/01/26 12:48:40;;;;;;;75.20;23.40;;;;;;;;;;4945011;28;20585;-86
2022/01/26 12:51:06;;;;;;;71.68;23.48;;;;;;;;;;4947677;28;20034;-85
2022/01/26 12:53:35;;;;;;;62.95;19.00;;;;;;;;;;4942154;28;20050;-86
2022/01/26 12:56:02;;;;;;;72.63;21.80;;;;;;;;;;4965501;28;20027;-86
2022/01/26 12:58:39;;;;;;;79.20;26.40;;;;;;;;;;4977140;28;20034;-85
2022/01/26 13:01:06;;;;;;;77.35;21.65;;;;;;;;;;4952615;28;20380;-85
2022/01/26 13:03:33;;;;;;;70.43;22.55;;;;;;;;;;4943150;28;20050;-85
2022/01/26 13:06:18;;;;;;;68.07;21.98;;;;;;;;;;4940594;28;20030;-85
2022/01/26 13:08:52;;;;;;;57.05;19.05;;;;;;;;;;4947601;28;20039;-84
2022/01/26 13:11:29;;;;;;;59.25;19.08;;;;;;;;;;4947552;28;20031;-85
2022/01/26 13:14:28;;;;;;;68.63;22.45;;;;;;;;;;4963862;28;20033;-85
2022/01/26 13:16:59;;;;;;;74.95;24.45;;;;;;;;;;4978746;28;20483;-84
2022/01/26 13:19:52;;;;;;;76.55;24.13;;;;;;;;;;4960317;28;20507;-84
2022/01/26 13:22:39;;;;;;;80.45;23.02;;;;;;;;;;4951022;28;20041;-85
2022/01/26 13:28:10;;;;;;;42.42;13.95;;;;;;;;;;4965790;28;20402;-85
2022/01/26 13:42:25;;;;;;;75.70;24.75;;;;;;;;;;4982833;28;20386;-85
2022/01/26 13:45:29;;;;;;;74.75;20.73;;;;;;;;;;4983518;28;20035;-84
2022/01/26 13:47:56;;;;;;;75.38;19.58;;;;;;;;;;4972565;28;20046;-85
2022/01/26 13:50:09;;;;;;;;;;;;;;;;;;4982334;28;20065;-85
2022/01/26 13:52:44;;;;;;;47.40;15.15;;;;;;;;;;4981482;28;20362;-82
2022/01/26 14:00:23;;;;;;;70.18;23.17;;;;;;;;;;4985058;28;20042;-85
2022/01/26 14:02:53;;;;;;;67.13;19.67;;;;;;;;;;4968199;28;20577;-84
2022/01/26 14:05:19;;;;;;;66.75;21.02;;;;;;;;;;4962929;28;20652;-85
2022/01/26 14:07:45;;;;;;;89.43;22.85;;;;;;;;;;4989950;28;20098;-86
2022/01/26 14:10:11;;;;;;;47.13;16.38;;;;;;;;;;4967407;28;20038;-85
2022/01/26 14:12:44;;;;;;;71.90;19.08;;;;;;;;;;4963903;28;20053;-85
2022/01/26 14:15:11;;;;;;;57.55;15.65;;;;;;;;;;4975062;28;20515;-84
2022/01/26 14:18:38;;;;;;;48.53;17.00;;;;;;;;;;4971558;28;20110;-84
2022/01/26 14:20:44;;;;;;;62.25;21.08;;;;;;;;;;4984207;28;20872;-84
2022/01/26 14:25:52;;;;;;;67.40;20.75;;;;;;;;;;4983603;28;20039;-84
2022/01/26 14:28:21;;;;;;;71.90;19.88;;;;;;;;;;4969010;28;20050;-84
2022/01/26 14:33:35;;;;;;;53.00;18.55;;;;;;;;;;4970642;28;20366;-85
2022/01/26 14:36:46;;;;;;;56.78;17.10;;;;;;;;;;4965120;28;20042;-85
2022/01/26 15:01:02;;;;;;;50.33;15.70;;;;;;;;;;4967915;28;20048;-86
2022/01/26 15:09:31;;;;;;;49.25;19.48;;;;;;;;;;4945079;28;20035;-86
2022/01/26 15:29:58;;;;;;;64.78;18.90;;;;;;;;;;4969542;28;20119;-85
2022/01/26 15:31:39;;;;;;;53.20;17.75;;;;;;;;;;4963390;28;20045;-86
2022/01/26 15:33:50;;;;;;;42.42;13.95;;;;;;;;;;4962183;28;20043;-86
2022/01/26 15:50:14;;;;;;;68.70;22.60;;;;;;;;;;4966068;28;20047;-86
2022/01/26 16:12:40;;;;;;;67.95;19.73;;;;;;;;;;4959131;28;20039;-85
2022/01/26 16:38:33;;;;;;;52.35;13.68;;;;;;;;;;4965175;28;20046;-86
2022/01/26 17:11:07;;;;;;;62.85;20.98;;;;;;;;;;4968801;28;20606;-86
2022/01/26 17:47:21;;;;;;;49.63;16.25;;;;;;;;;;4984098;28;20049;-86
2022/01/26 18:38:45;;;;;;;55.70;16.38;;;;;;;;;;4977555;28;20061;-85
2022/01/26 18:39:25;;;;;;;37.80;11.45;;;;;;;;;;4966884;28;20585;-86
2022/01/26 18:50:01;;;;;;;28.70;10.02;;;;;;;;;;4966006;28;20056;-85
2022/01/26 18:52:27;;;;;;;43.42;9.52;;;;;;;;;;4952218;28;20057;-86
2022/01/26 18:54:53;;;;;;;44.78;14.63;;;;;;;;;;4947992;28;20054;-85
2022/01/26 18:57:19;;;;;;;38.25;13.35;;;;;;;;;;4978143;28;20027;-85
2022/01/26 18:59:46;;;;;;;36.75;13.25;;;;;;;;;;4950337;28;20117;-85
2022/01/26 19:02:12;;;;;;;40.50;13.35;;;;;;;;;;4949752;28;20151;-84
2022/01/26 19:04:46;;;;;;;22.35;10.43;;;;;;;;;;4950817;28;20034;-86
2022/01/26 19:07:12;;;;;;;21.77;9.95;;;;;;;;;;4966193;28;20050;-85
2022/01/26 19:09:45;;;;;;;38.92;13.00;;;;;;;;;;4984156;28;20038;-86
2022/01/26 19:12:14;;;;;;;46.25;13.43;;;;;;;;;;4949408;28;20454;-85
2022/01/26 19:14:45;;;;;;;26.90;10.32;;;;;;;;;;4948528;28;20041;-85
2022/01/26 19:17:32;;;;;;;26.75;10.07;;;;;;;;;;4966031;28;20151;-85
2022/01/26 19:52:03;;;;;;;35.63;13.02;;;;;;;;;;4983209;28;20134;-85
2022/01/26 19:54:30;;;;;;;33.65;13.75;;;;;;;;;;4962655;28;20094;-85
2022/01/26 19:56:55;;;;;;;39.42;11.93;;;;;;;;;;4988574;28;20721;-86
2022/01/26 19:59:22;;;;;;;29.90;11.75;;;;;;;;;;4966293;28;20113;-85
2022/01/26 20:01:47;;;;;;;30.70;9.65;;;;;;;;;;4970039;28;20030;-85
2022/01/26 20:04:14;;;;;;;39.88;14.10;;;;;;;;;;4964109;28;20427;-85
2022/01/26 20:06:41;;;;;;;40.50;15.15;;;;;;;;;;4964978;28;20531;-85
2022/01/26 20:09:24;;;;;;;40.13;13.77;;;;;;;;;;4961891;28;20031;-85
2022/01/26 20:12:03;;;;;;;39.53;14.45;;;;;;;;;;4983689;28;20034;-85
2022/01/26 20:14:34;;;;;;;46.35;13.02;;;;;;;;;;4972070;28;20655;-85
2022/01/26 20:17:00;;;;;;;36.22;12.90;;;;;;;;;;4961030;28;20053;-85
2022/01/26 20:19:27;;;;;;;23.60;10.38;;;;;;;;;;4984569;28;20074;-86
2022/01/26 20:21:53;;;;;;;37.75;11.60;;;;;;;;;;4964485;28;20466;-85
2022/01/26 20:24:19;;;;;;;30.27;9.73;;;;;;;;;;4965832;28;20121;-85
2022/01/26 20:26:45;;;;;;;28.40;10.85;;;;;;;;;;4967133;28;20038;-85
2022/01/26 20:29:12;;;;;;;27.10;10.35;;;;;;;;;;4974404;28;20045;-86
2022/01/26 20:31:38;;;;;;;32.78;9.75;;;;;;;;;;4966233;28;20061;-84
2022/01/26 20:34:04;;;;;;;37.80;12.40;;;;;;;;;;4985443;28;20522;-85
2022/01/26 20:36:30;;;;;;;35.03;11.95;;;;;;;;;;4965129;28;20027;-85
2022/01/26 20:38:57;;;;;;;31.95;11.88;;;;;;;;;;4945779;28;20034;-85
2022/01/26 20:41:23;;;;;;;37.30;12.73;;;;;;;;;;4967660;28;20079;-85
2022/01/26 20:43:49;;;;;;;38.88;11.80;;;;;;;;;;4957787;28;20220;-86
2022/01/26 20:46:15;;;;;;;34.85;11.15;;;;;;;;;;4966979;28;20932;-86
2022/01/26 20:48:41;;;;;;;36.40;13.35;;;;;;;;;;4965819;28;20043;-84
2022/01/26 20:51:07;;;;;;;50.65;13.63;;;;;;;;;;4954533;28;20039;-86
2022/01/26 20:53:34;;;;;;;42.58;14.25;;;;;;;;;;4943178;28;20121;-85
2022/01/26 20:56:01;;;;;;;32.53;10.00;;;;;;;;;;4963045;28;20066;-86
2022/01/26 20:58:27;;;;;;;50.55;17.92;;;;;;;;;;4975396;28;20038;-86
2022/01/26 21:00:54;;;;;;;44.88;14.48;;;;;;;;;;4972110;28;20098;-86
2022/01/26 21:03:22;;;;;;;28.58;9.85;;;;;;;;;;4977832;28;20043;-86
2022/01/26 21:05:48;;;;;;;36.08;13.45;;;;;;;;;;4944019;28;20846;-86
2022/01/26 21:08:16;;;;;;;33.60;12.77;;;;;;;;;;4947477;28;20098;-86
2022/01/26 21:10:42;;;;;;;24.52;9.90;;;;;;;;;;4963591;28;20618;-86
2022/01/26 21:13:08;;;;;;;37.55;10.02;;;;;;;;;;4952603;28;20026;-86
2022/01/26 21:15:35;;;;;;;37.80;10.13;;;;;;;;;;4945151;28;20041;-86
2022/01/26 21:18:02;;;;;;;30.45;9.00;;;;;;;;;;4951880;28;20090;-84
2022/01/26 21:20:28;;;;;;;34.75;12.23;;;;;;;;;;4946416;28;20035;-86